createdAt,value
2018-06-05T00:02:17.700Z,22.30
2018-06-05T00:04:46.518Z,22.00
2018-06-05T00:07:15.026Z,21.43
2018-06-05T00:09:43.523Z,22.30
2018-06-05T00:12:12.070Z,23.40
2018-06-05T00:14:40.579Z,22.90
2018-06-05T00:17:09.095Z,21.80
2018-06-05T00:19:37.669Z,23.60
2018-06-05T00:22:06.192Z,22.60
2018-06-05T00:24:34.682Z,23.87
2018-06-05T00:27:03.252Z,24.30
2018-06-05T00:29:32.491Z,24.32
2018-06-05T00:32:00.999Z,23.13
2018-06-05T00:34:29.498Z,24.05
2018-06-05T00:36:57.975Z,23.23
2018-06-05T00:39:26.476Z,24.77
2018-06-05T00:41:54.966Z,23.60
2018-06-05T00:44:23.553Z,24.90
2018-06-05T00:46:52.180Z,26.53
2018-06-05T00:49:21.009Z,24.25
2018-06-05T00:52:00.785Z,25.33
2018-06-05T00:54:29.274Z,24.83
2018-06-05T00:56:57.966Z,25.17
2018-06-05T00:59:26.531Z,25.72
2018-06-05T01:01:55.018Z,26.70
2018-06-05T01:04:23.533Z,26.90
2018-06-05T01:06:52.064Z,25.30
2018-06-05T01:09:20.616Z,27.83
2018-06-05T01:11:49.120Z,25.37
2018-06-05T01:14:17.698Z,26.77
2018-06-05T01:16:46.264Z,27.13
2018-06-05T01:19:14.836Z,27.00
2018-06-05T01:21:43.291Z,28.73
2018-06-05T01:24:11.815Z,26.60
2018-06-05T01:26:40.303Z,28.03
2018-06-05T01:29:08.875Z,28.30
2018-06-05T01:31:37.375Z,27.67
2018-06-05T01:34:05.898Z,28.93
2018-06-05T01:36:34.350Z,27.80
2018-06-05T01:39:02.997Z,26.30
2018-06-05T01:41:32.450Z,29.13
2018-06-05T01:44:01.747Z,28.13
2018-06-05T01:46:30.260Z,28.30
2018-06-05T01:48:58.767Z,28.73
2018-06-05T01:51:27.236Z,27.10
2018-06-05T01:53:55.775Z,29.20
2018-06-05T01:56:24.259Z,28.43
2018-06-05T01:58:52.835Z,30.17
2018-06-05T02:01:21.427Z,28.37
2018-06-05T02:03:49.906Z,30.30
2018-06-05T02:06:18.381Z,29.10
2018-06-05T02:08:46.868Z,30.27
2018-06-05T02:11:15.421Z,30.97
2018-06-05T02:13:43.905Z,31.37
2018-06-05T02:16:12.442Z,30.53
2018-06-05T02:18:41.004Z,30.87
2018-06-05T02:21:09.628Z,31.35
2018-06-05T02:23:38.234Z,31.07
2018-06-05T02:26:06.741Z,30.03
2018-06-05T02:28:35.590Z,31.53
2018-06-05T02:31:04.110Z,30.50
2018-06-05T02:33:32.863Z,31.30
2018-06-05T02:36:01.907Z,32.08
2018-06-05T02:38:30.418Z,30.67
2018-06-05T02:40:59.012Z,31.47
2018-06-05T02:43:27.535Z,31.10
2018-06-05T02:45:56.145Z,31.13
2018-06-05T02:48:24.887Z,31.10
2018-06-05T02:50:53.419Z,31.13
2018-06-05T02:53:21.958Z,30.37
2018-06-05T02:55:50.482Z,32.20
2018-06-05T02:58:19.003Z,31.70
2018-06-05T03:00:47.497Z,31.33
2018-06-05T03:03:16.005Z,32.30
2018-06-05T03:05:44.502Z,32.83
2018-06-05T03:08:13.138Z,32.20
2018-06-05T03:10:41.665Z,32.60
2018-06-05T03:13:10.167Z,32.50
2018-06-05T03:15:39.277Z,30.97
2018-06-05T03:18:08.412Z,31.40
2018-06-05T03:20:38.595Z,33.17
2018-06-05T03:23:07.167Z,32.27
2018-06-05T03:25:35.677Z,29.93
2018-06-05T03:28:04.198Z,32.78
2018-06-05T03:30:32.833Z,31.57
2018-06-05T03:33:01.423Z,33.70
2018-06-05T03:35:29.914Z,32.08
2018-06-05T03:37:58.635Z,33.40
2018-06-05T03:40:27.229Z,34.20
2018-06-05T03:42:56.190Z,31.43
2018-06-05T03:45:25.042Z,32.10
2018-06-05T03:47:53.561Z,33.80
2018-06-05T03:50:22.034Z,34.33
2018-06-05T03:52:50.573Z,32.70
2018-06-05T03:55:19.120Z,32.50
2018-06-05T03:57:47.666Z,33.10
2018-06-05T04:00:16.208Z,33.67
2018-06-05T04:02:44.729Z,32.40
2018-06-05T04:05:13.353Z,31.80
2018-06-05T04:07:41.863Z,31.53
2018-06-05T04:10:10.640Z,29.73
2018-06-05T04:12:39.489Z,34.80
2018-06-05T04:15:08.260Z,32.97
2018-06-05T04:17:36.953Z,33.18
2018-06-05T04:20:05.666Z,32.77
2018-06-05T04:22:46.362Z,32.60
2018-06-05T04:25:15.139Z,34.70
2018-06-05T04:27:43.825Z,32.07
2018-06-05T04:30:12.408Z,32.42
2018-06-05T04:32:41.043Z,30.80
2018-06-05T04:35:09.984Z,31.63
2018-06-05T04:37:38.882Z,32.67
2018-06-05T04:40:07.598Z,32.80
2018-06-05T04:42:36.242Z,33.27
2018-06-05T04:45:15.842Z,32.80
2018-06-05T04:47:44.580Z,32.63
2018-06-05T04:50:13.345Z,33.50
2018-06-05T04:52:52.008Z,32.53
2018-06-05T04:55:20.624Z,34.53
2018-06-05T04:57:49.305Z,32.80
2018-06-05T05:00:18.018Z,32.20
2018-06-05T05:02:46.645Z,32.65
2018-06-05T05:05:15.284Z,32.00
2018-06-05T05:07:43.957Z,32.03
2018-06-05T05:10:12.589Z,31.87
2018-06-05T05:12:41.102Z,33.70
2018-06-05T05:15:10.855Z,32.00
2018-06-05T05:17:39.492Z,30.03
2018-06-05T05:20:08.084Z,33.23
2018-06-05T05:58:14.880Z,28.50
2018-06-05T06:00:43.493Z,30.13
2018-06-05T06:03:12.096Z,33.50
2018-06-05T06:05:40.966Z,29.80
2018-06-05T06:08:09.764Z,29.43
2018-06-05T06:10:38.463Z,30.10
2018-06-05T06:13:07.124Z,30.43
2018-06-05T06:15:35.868Z,31.60
2018-06-05T06:18:04.643Z,32.80
2018-06-05T06:20:33.298Z,32.20
2018-06-05T06:23:02.219Z,32.10
2018-06-05T06:25:30.847Z,31.40
2018-06-05T06:27:59.600Z,32.77
2018-06-05T06:30:28.133Z,30.97
2018-06-05T06:32:56.946Z,31.93
2018-06-05T06:35:26.683Z,32.00
2018-06-05T06:37:55.459Z,32.37
2018-06-05T06:40:24.030Z,32.97
2018-06-05T06:42:52.798Z,29.87
2018-06-05T06:45:21.539Z,30.10
2018-06-05T06:47:50.271Z,31.87
2018-06-05T06:50:19.015Z,29.07
2018-06-05T06:52:47.564Z,30.33
2018-06-05T06:55:16.207Z,30.47
2018-06-05T06:57:44.847Z,28.83
2018-06-05T07:00:14.397Z,30.90
2018-06-05T07:02:44.070Z,31.83
2018-06-05T07:05:12.941Z,31.30
2018-06-05T07:07:41.476Z,29.02
2018-06-05T07:10:10.248Z,29.57
2018-06-05T07:12:38.837Z,30.30
2018-06-05T07:15:07.426Z,28.40
2018-06-05T07:17:36.064Z,29.30
2018-06-05T07:20:04.588Z,28.73
2018-06-05T07:22:33.286Z,27.40
2018-06-05T07:25:01.984Z,27.93
2018-06-05T07:27:30.784Z,28.30
2018-06-05T07:29:59.381Z,27.80
2018-06-05T07:32:28.063Z,27.33
2018-06-05T07:34:57.363Z,27.13
2018-06-05T07:37:26.084Z,27.83
2018-06-05T07:39:54.690Z,27.98
2018-06-05T07:42:23.336Z,26.50
2018-06-05T07:44:52.708Z,26.87
2018-06-05T07:47:21.308Z,27.90
2018-06-05T07:49:49.826Z,26.17
2018-06-05T07:52:18.634Z,28.23
2018-06-05T07:54:47.235Z,27.73
2018-06-05T07:57:15.814Z,25.60
2018-06-05T07:59:44.369Z,24.35
2018-06-05T08:02:13.052Z,25.03
2018-06-05T08:04:41.611Z,24.77
2018-06-05T08:07:11.525Z,25.20
2018-06-05T08:09:40.093Z,25.47
2018-06-05T08:12:08.679Z,27.70
2018-06-05T08:14:37.368Z,26.33
2018-06-05T08:17:06.509Z,27.57
2018-06-05T08:19:35.498Z,26.60
2018-06-05T08:22:04.263Z,24.23
2018-06-05T08:24:32.870Z,23.60
2018-06-05T08:27:01.455Z,25.60
2018-06-05T08:29:30.138Z,25.03
2018-06-05T08:31:58.807Z,25.10
2018-06-05T08:34:27.462Z,22.70
2018-06-05T08:36:55.973Z,27.10
2018-06-05T08:39:24.635Z,25.37
2018-06-05T08:41:53.221Z,25.43
2018-06-05T08:44:21.783Z,24.93
2018-06-05T08:46:50.434Z,24.23
2018-06-05T08:49:18.943Z,23.03
2018-06-05T08:51:47.568Z,21.43
2018-06-05T08:54:16.276Z,25.23
2018-06-05T08:56:45.352Z,23.70
2018-06-05T08:59:14.353Z,22.27
2018-06-05T09:01:43.076Z,23.12
2018-06-05T09:04:11.764Z,21.43
2018-06-05T09:06:40.430Z,23.50
2018-06-05T09:09:09.364Z,23.80
2018-06-05T09:11:37.869Z,21.60
2018-06-05T09:14:06.385Z,21.60
2018-06-05T09:16:34.873Z,21.67
2018-06-05T09:19:03.666Z,22.10
2018-06-05T09:21:32.495Z,18.62
2018-06-05T09:24:01.135Z,21.33
2018-06-05T09:26:29.839Z,22.85
2018-06-05T09:28:58.534Z,20.60
2018-06-05T09:31:27.176Z,20.70
2018-06-05T09:33:55.998Z,22.00
2018-06-05T09:36:24.613Z,19.82
2018-06-05T09:38:53.293Z,20.50
2018-06-05T09:41:21.841Z,19.73
2018-06-05T09:43:50.526Z,20.73
2018-06-05T09:46:19.055Z,18.50
2018-06-05T09:48:47.669Z,19.55
2018-06-05T09:51:16.215Z,19.17
2018-06-05T09:53:45.471Z,19.40
2018-06-05T09:56:14.129Z,19.07
2018-06-05T09:58:45.787Z,17.73
2018-06-05T10:01:14.431Z,20.30
2018-06-05T10:03:43.092Z,20.17
2018-06-05T10:06:11.845Z,18.93
2018-06-05T10:08:41.169Z,18.10
2018-06-05T10:11:10.224Z,16.65
2018-06-05T10:13:38.896Z,19.55
2018-06-05T10:16:07.868Z,19.50
2018-06-05T10:18:36.556Z,15.67
2018-06-05T10:21:05.205Z,18.10
2018-06-05T10:23:33.908Z,17.40
2018-06-05T10:26:02.727Z,17.90
2018-06-05T10:28:31.519Z,18.40
2018-06-05T10:31:00.395Z,18.02
2018-06-05T10:33:29.233Z,16.97
2018-06-05T10:35:58.014Z,18.50
2018-06-05T10:38:26.697Z,16.93
2018-06-05T10:40:55.462Z,17.92
2018-06-05T10:43:30.085Z,17.80
2018-06-05T10:45:58.780Z,15.38
2018-06-05T10:48:27.612Z,17.73
2018-06-05T10:50:56.393Z,19.15
2018-06-05T10:53:25.063Z,17.87
2018-06-05T10:55:54.827Z,16.93
2018-06-05T10:58:23.698Z,16.43
2018-06-05T11:00:52.496Z,15.20
2018-06-05T11:03:21.164Z,15.40
2018-06-05T11:11:52.453Z,12.94
2018-06-05T11:14:53.033Z,13.97
2018-06-05T11:20:26.538Z,12.37
2018-06-05T11:25:54.029Z,10.53
2018-06-05T11:37:30.569Z,11.83
2018-06-05T11:50:20.426Z,10.17
2018-06-05T11:56:00.765Z,9.40
2018-06-05T11:58:52.629Z,9.37
2018-06-05T12:01:53.993Z,9.73
2018-06-05T12:07:25.873Z,9.33
2018-06-05T12:10:01.293Z,8.47
2018-06-05T12:20:42.319Z,7.97
2018-06-05T12:36:56.448Z,5.90
2018-06-05T12:39:35.854Z,5.64
2018-06-05T13:02:14.426Z,5.72
2018-06-05T13:04:44.707Z,5.47
2018-06-05T13:07:19.972Z,4.13
2018-06-05T13:13:25.478Z,5.00
2018-06-05T13:16:03.014Z,4.70
2018-06-05T13:18:49.647Z,4.57
2018-06-05T13:24:44.488Z,4.47
2018-06-05T13:27:27.588Z,4.52
2018-06-05T13:30:05.798Z,4.97
2018-06-05T13:32:54.985Z,4.65
2018-06-05T13:35:47.383Z,4.33
2018-06-05T13:38:21.109Z,4.33
2018-06-05T13:40:58.403Z,3.93
2018-06-05T13:43:42.125Z,4.73
2018-06-05T13:46:17.906Z,4.30
2018-06-05T13:49:16.059Z,4.10
2018-06-05T13:54:52.030Z,4.67
2018-06-05T13:57:24.008Z,3.80
2018-06-05T13:59:55.574Z,3.67
2018-06-05T14:02:31.907Z,3.77
2018-06-05T14:08:10.809Z,4.10
2018-06-05T16:31:37.381Z,5.80
2018-06-05T16:34:06.115Z,5.67
2018-06-05T16:36:34.707Z,5.90
2018-06-05T17:44:55.134Z,11.35
2018-06-05T17:47:27.299Z,11.40
2018-06-05T17:53:02.364Z,10.97
2018-06-05T18:09:53.034Z,11.58
2018-06-05T18:16:01.058Z,9.47
2018-06-05T18:18:54.831Z,9.30
2018-06-05T18:22:36.118Z,9.93
2018-06-05T18:25:10.778Z,10.10
2018-06-05T18:31:10.897Z,10.08
2018-06-05T18:34:39.790Z,10.60
2018-06-05T19:08:37.948Z,11.60
2018-06-05T19:11:09.904Z,12.25
2018-06-05T19:14:05.424Z,12.73
2018-06-05T19:43:55.010Z,12.55
2018-06-05T19:46:25.578Z,13.80
2018-06-05T19:48:56.792Z,16.10
2018-06-05T19:51:25.349Z,16.77
2018-06-05T19:54:02.661Z,15.80
2018-06-05T19:56:36.052Z,17.17
2018-06-05T19:59:04.923Z,17.23
2018-06-05T20:01:34.703Z,15.53
2018-06-05T20:04:07.240Z,17.90
2018-06-05T20:06:40.645Z,17.70
2018-06-05T20:09:11.570Z,18.10
2018-06-05T20:11:44.273Z,17.57
2018-06-05T20:14:14.299Z,17.37
2018-06-05T20:16:43.651Z,17.97
2018-06-05T20:19:14.456Z,17.90
2018-06-05T20:21:43.394Z,17.67
2018-06-05T20:24:14.130Z,18.30
2018-06-05T20:26:46.557Z,18.67
2018-06-05T20:29:23.809Z,18.60
2018-06-05T20:31:58.209Z,19.14
2018-06-05T20:34:27.900Z,18.62
2018-06-05T22:59:08.039Z,16.90
